Terminal Aerodrome Forecast
Issued by NWS Atlanta, GA

Home | Current Version | Previous Version | Text Only | Print | Product List | Glossary On
Versions: 1 2 3 4 5 6 7 8 9 10 11 12 13 14 15 16 17 18 19 20 21 22 23 24 25 26 27 28 29 30
000
FTUS42 KFFC 271354 AAA
TAFMCN
TAF AMD
KMCN 271354Z 2714/2812 05005KT P6SM SCT006
     FM271500 09004KT P6SM SCT025 SCT050
     FM271700 11004KT P6SM SCT050 SCT250
      TEMPO 2719/2723 P6SM TSRA BKN040CB
     FM280100 15004KT P6SM FEW080=

USA.gov is the U.S. government's official web portal to all federal, state and local government web resources and services.